sensor_id;sensor_type;location;lat;lon;timestamp;P1;durP1;ratioP1;P2;durP2;ratioP2
81170;SDS011;70644;44.818;20.478;2024-02-26T00:00:38;8.80;;;7.60;;
81170;SDS011;70644;44.818;20.478;2024-02-26T00:03:05;10.73;;;8.00;;
81170;SDS011;70644;44.818;20.478;2024-02-26T00:05:31;8.88;;;7.45;;
81170;SDS011;70644;44.818;20.478;2024-02-26T00:07:58;10.55;;;7.53;;
81170;SDS011;70644;44.818;20.478;2024-02-26T00:10:24;10.80;;;7.85;;
81170;SDS011;70644;44.818;20.478;2024-02-26T00:12:50;9.30;;;7.43;;
81170;SDS011;70644;44.818;20.478;2024-02-26T00:15:16;9.88;;;7.45;;
81170;SDS011;70644;44.818;20.478;2024-02-26T00:17:42;9.50;;;6.90;;
81170;SDS011;70644;44.818;20.478;2024-02-26T00:20:09;9.40;;;7.75;;
81170;SDS011;70644;44.818;20.478;2024-02-26T00:22:36;8.73;;;7.00;;
81170;SDS011;70644;44.818;20.478;2024-02-26T00:25:02;9.35;;;7.03;;
81170;SDS011;70644;44.818;20.478;2024-02-26T00:27:28;8.27;;;7.07;;
81170;SDS011;70644;44.818;20.478;2024-02-26T00:29:54;8.38;;;7.07;;
81170;SDS011;70644;44.818;20.478;2024-02-26T00:32:20;9.95;;;6.95;;
81170;SDS011;70644;44.818;20.478;2024-02-26T00:34:46;8.38;;;6.50;;
81170;SDS011;70644;44.818;20.478;2024-02-26T00:37:12;8.30;;;6.70;;
81170;SDS011;70644;44.818;20.478;2024-02-26T00:39:38;8.88;;;6.78;;
81170;SDS011;70644;44.818;20.478;2024-02-26T00:42:05;9.80;;;7.25;;
81170;SDS011;70644;44.818;20.478;2024-02-26T00:44:31;9.68;;;7.13;;
81170;SDS011;70644;44.818;20.478;2024-02-26T00:46:57;9.40;;;7.03;;
81170;SDS011;70644;44.818;20.478;2024-02-26T00:49:23;8.98;;;7.18;;
81170;SDS011;70644;44.818;20.478;2024-02-26T00:51:49;10.18;;;7.25;;
81170;SDS011;70644;44.818;20.478;2024-02-26T00:54:15;9.00;;;6.82;;
81170;SDS011;70644;44.818;20.478;2024-02-26T00:56:41;7.85;;;6.32;;
81170;SDS011;70644;44.818;20.478;2024-02-26T00:59:07;8.90;;;6.43;;
81170;SDS011;70644;44.818;20.478;2024-02-26T01:01:33;7.90;;;6.72;;
81170;SDS011;70644;44.818;20.478;2024-02-26T01:04:00;8.85;;;6.97;;
81170;SDS011;70644;44.818;20.478;2024-02-26T01:06:26;9.23;;;6.93;;
81170;SDS011;70644;44.818;20.478;2024-02-26T01:08:52;9.65;;;7.00;;
81170;SDS011;70644;44.818;20.478;2024-02-26T01:11:18;7.45;;;6.18;;
81170;SDS011;70644;44.818;20.478;2024-02-26T01:13:44;7.97;;;6.30;;
81170;SDS011;70644;44.818;20.478;2024-02-26T01:16:10;7.70;;;6.30;;
81170;SDS011;70644;44.818;20.478;2024-02-26T01:18:36;8.57;;;6.50;;
81170;SDS011;70644;44.818;20.478;2024-02-26T01:21:02;7.45;;;5.95;;
81170;SDS011;70644;44.818;20.478;2024-02-26T01:23:31;9.02;;;6.10;;
81170;SDS011;70644;44.818;20.478;2024-02-26T01:25:58;10.10;;;6.45;;
81170;SDS011;70644;44.818;20.478;2024-02-26T01:28:25;8.32;;;6.00;;
81170;SDS011;70644;44.818;20.478;2024-02-26T01:30:51;7.18;;;6.15;;
81170;SDS011;70644;44.818;20.478;2024-02-26T01:33:17;7.82;;;5.80;;
81170;SDS011;70644;44.818;20.478;2024-02-26T01:35:43;7.20;;;5.90;;
81170;SDS011;70644;44.818;20.478;2024-02-26T01:38:09;7.43;;;5.85;;
81170;SDS011;70644;44.818;20.478;2024-02-26T01:40:35;8.00;;;6.20;;
81170;SDS011;70644;44.818;20.478;2024-02-26T01:43:01;7.60;;;6.18;;
81170;SDS011;70644;44.818;20.478;2024-02-26T01:45:28;9.48;;;6.22;;
81170;SDS011;70644;44.818;20.478;2024-02-26T01:47:54;9.68;;;6.72;;
81170;SDS011;70644;44.818;20.478;2024-02-26T01:50:20;8.23;;;6.50;;
81170;SDS011;70644;44.818;20.478;2024-02-26T01:52:50;7.95;;;6.07;;
81170;SDS011;70644;44.818;20.478;2024-02-26T01:55:17;8.63;;;6.50;;
81170;SDS011;70644;44.818;20.478;2024-02-26T01:57:45;7.88;;;6.32;;
81170;SDS011;70644;44.818;20.478;2024-02-26T02:00:12;7.95;;;6.75;;
81170;SDS011;70644;44.818;20.478;2024-02-26T02:02:38;8.02;;;6.28;;
81170;SDS011;70644;44.818;20.478;2024-02-26T02:05:06;7.90;;;6.22;;
81170;SDS011;70644;44.818;20.478;2024-02-26T02:07:34;9.50;;;6.35;;
81170;SDS011;70644;44.818;20.478;2024-02-26T02:10:00;10.18;;;6.80;;
81170;SDS011;70644;44.818;20.478;2024-02-26T02:12:26;7.78;;;6.55;;
81170;SDS011;70644;44.818;20.478;2024-02-26T02:14:53;8.93;;;6.15;;
81170;SDS011;70644;44.818;20.478;2024-02-26T02:17:19;7.70;;;6.22;;
81170;SDS011;70644;44.818;20.478;2024-02-26T02:19:45;7.93;;;6.07;;
81170;SDS011;70644;44.818;20.478;2024-02-26T02:22:11;8.82;;;6.70;;
81170;SDS011;70644;44.818;20.478;2024-02-26T02:24:37;8.27;;;6.50;;
81170;SDS011;70644;44.818;20.478;2024-02-26T02:27:03;8.35;;;6.68;;
81170;SDS011;70644;44.818;20.478;2024-02-26T02:29:30;8.43;;;6.03;;
81170;SDS011;70644;44.818;20.478;2024-02-26T02:31:56;8.75;;;6.50;;
81170;SDS011;70644;44.818;20.478;2024-02-26T02:34:22;9.05;;;7.35;;
81170;SDS011;70644;44.818;20.478;2024-02-26T02:36:49;8.57;;;6.60;;
81170;SDS011;70644;44.818;20.478;2024-02-26T02:39:15;7.90;;;6.35;;
81170;SDS011;70644;44.818;20.478;2024-02-26T02:41:41;7.78;;;6.47;;
81170;SDS011;70644;44.818;20.478;2024-02-26T02:44:07;9.05;;;6.88;;
81170;SDS011;70644;44.818;20.478;2024-02-26T02:46:33;7.95;;;6.90;;
81170;SDS011;70644;44.818;20.478;2024-02-26T02:49:00;8.18;;;6.35;;
81170;SDS011;70644;44.818;20.478;2024-02-26T02:51:26;8.07;;;6.70;;
81170;SDS011;70644;44.818;20.478;2024-02-26T02:53:52;9.35;;;6.90;;
81170;SDS011;70644;44.818;20.478;2024-02-26T02:56:19;8.30;;;6.57;;
81170;SDS011;70644;44.818;20.478;2024-02-26T02:58:45;8.13;;;6.93;;
81170;SDS011;70644;44.818;20.478;2024-02-26T03:01:12;8.23;;;6.35;;
81170;SDS011;70644;44.818;20.478;2024-02-26T03:03:39;9.32;;;6.53;;
81170;SDS011;70644;44.818;20.478;2024-02-26T03:06:05;8.93;;;6.68;;
81170;SDS011;70644;44.818;20.478;2024-02-26T03:08:31;7.88;;;6.63;;
81170;SDS011;70644;44.818;20.478;2024-02-26T03:10:58;9.18;;;6.93;;
81170;SDS011;70644;44.818;20.478;2024-02-26T03:13:25;8.48;;;6.95;;
81170;SDS011;70644;44.818;20.478;2024-02-26T03:15:51;8.20;;;6.55;;
81170;SDS011;70644;44.818;20.478;2024-02-26T03:18:17;8.95;;;7.18;;
81170;SDS011;70644;44.818;20.478;2024-02-26T03:20:43;9.57;;;6.90;;
81170;SDS011;70644;44.818;20.478;2024-02-26T03:23:09;9.48;;;6.63;;
81170;SDS011;70644;44.818;20.478;2024-02-26T03:25:38;9.02;;;6.45;;
81170;SDS011;70644;44.818;20.478;2024-02-26T03:28:04;8.13;;;6.38;;
81170;SDS011;70644;44.818;20.478;2024-02-26T03:30:30;8.73;;;6.68;;
81170;SDS011;70644;44.818;20.478;2024-02-26T03:32:56;9.63;;;6.45;;
81170;SDS011;70644;44.818;20.478;2024-02-26T03:35:22;7.88;;;6.78;;
81170;SDS011;70644;44.818;20.478;2024-02-26T03:37:48;8.07;;;6.20;;
81170;SDS011;70644;44.818;20.478;2024-02-26T03:40:16;8.48;;;6.82;;
81170;SDS011;70644;44.818;20.478;2024-02-26T03:42:44;8.48;;;6.47;;
81170;SDS011;70644;44.818;20.478;2024-02-26T03:45:10;7.53;;;6.22;;
81170;SDS011;70644;44.818;20.478;2024-02-26T03:47:39;6.68;;;5.90;;
81170;SDS011;70644;44.818;20.478;2024-02-26T03:50:06;6.85;;;5.72;;
81170;SDS011;70644;44.818;20.478;2024-02-26T03:52:32;8.55;;;6.57;;
81170;SDS011;70644;44.818;20.478;2024-02-26T03:54:59;7.95;;;5.80;;
81170;SDS011;70644;44.818;20.478;2024-02-26T03:57:25;7.80;;;5.38;;
81170;SDS011;70644;44.818;20.478;2024-02-26T03:59:51;7.13;;;5.72;;
81170;SDS011;70644;44.818;20.478;2024-02-26T04:02:17;7.40;;;5.78;;
81170;SDS011;70644;44.818;20.478;2024-02-26T04:04:47;7.35;;;5.53;;
81170;SDS011;70644;44.818;20.478;2024-02-26T04:07:14;7.15;;;5.63;;
81170;SDS011;70644;44.818;20.478;2024-02-26T04:09:40;7.15;;;6.15;;
81170;SDS011;70644;44.818;20.478;2024-02-26T04:12:06;6.40;;;5.65;;
81170;SDS011;70644;44.818;20.478;2024-02-26T04:14:32;6.72;;;5.63;;
81170;SDS011;70644;44.818;20.478;2024-02-26T04:16:58;7.20;;;5.50;;
81170;SDS011;70644;44.818;20.478;2024-02-26T04:19:24;6.75;;;5.43;;
81170;SDS011;70644;44.818;20.478;2024-02-26T04:21:50;7.03;;;5.72;;
81170;SDS011;70644;44.818;20.478;2024-02-26T04:24:16;8.00;;;5.55;;
81170;SDS011;70644;44.818;20.478;2024-02-26T04:26:43;7.15;;;5.60;;
81170;SDS011;70644;44.818;20.478;2024-02-26T04:29:09;8.73;;;5.35;;
81170;SDS011;70644;44.818;20.478;2024-02-26T04:31:36;6.80;;;5.63;;
81170;SDS011;70644;44.818;20.478;2024-02-26T04:34:03;6.03;;;5.13;;
81170;SDS011;70644;44.818;20.478;2024-02-26T04:36:29;6.45;;;4.97;;
81170;SDS011;70644;44.818;20.478;2024-02-26T04:38:55;6.25;;;5.10;;
81170;SDS011;70644;44.818;20.478;2024-02-26T04:41:21;6.60;;;5.25;;
81170;SDS011;70644;44.818;20.478;2024-02-26T04:43:47;6.18;;;4.90;;
81170;SDS011;70644;44.818;20.478;2024-02-26T04:46:13;6.05;;;4.75;;
81170;SDS011;70644;44.818;20.478;2024-02-26T04:48:39;5.93;;;5.05;;
81170;SDS011;70644;44.818;20.478;2024-02-26T04:51:07;5.70;;;4.75;;
81170;SDS011;70644;44.818;20.478;2024-02-26T04:53:33;5.63;;;4.88;;
81170;SDS011;70644;44.818;20.478;2024-02-26T04:55:59;5.63;;;4.40;;
81170;SDS011;70644;44.818;20.478;2024-02-26T04:58:25;5.50;;;4.85;;
81170;SDS011;70644;44.818;20.478;2024-02-26T05:00:51;5.50;;;4.78;;
81170;SDS011;70644;44.818;20.478;2024-02-26T05:03:18;6.65;;;5.05;;
81170;SDS011;70644;44.818;20.478;2024-02-26T05:05:44;6.22;;;5.00;;
81170;SDS011;70644;44.818;20.478;2024-02-26T05:08:10;5.47;;;4.53;;
81170;SDS011;70644;44.818;20.478;2024-02-26T05:10:37;5.78;;;4.40;;
81170;SDS011;70644;44.818;20.478;2024-02-26T05:13:06;5.97;;;4.50;;
81170;SDS011;70644;44.818;20.478;2024-02-26T05:15:32;6.00;;;4.53;;
81170;SDS011;70644;44.818;20.478;2024-02-26T05:17:58;6.22;;;4.30;;
81170;SDS011;70644;44.818;20.478;2024-02-26T05:20:24;5.22;;;4.70;;
81170;SDS011;70644;44.818;20.478;2024-02-26T05:22:51;6.82;;;4.85;;
81170;SDS011;70644;44.818;20.478;2024-02-26T05:25:17;6.38;;;4.20;;
81170;SDS011;70644;44.818;20.478;2024-02-26T05:27:43;6.57;;;4.65;;
81170;SDS011;70644;44.818;20.478;2024-02-26T05:30:10;6.28;;;4.38;;
81170;SDS011;70644;44.818;20.478;2024-02-26T05:32:36;5.15;;;4.13;;
81170;SDS011;70644;44.818;20.478;2024-02-26T05:35:02;4.85;;;4.18;;
81170;SDS011;70644;44.818;20.478;2024-02-26T05:37:29;5.57;;;4.20;;
81170;SDS011;70644;44.818;20.478;2024-02-26T05:39:55;4.93;;;4.43;;
81170;SDS011;70644;44.818;20.478;2024-02-26T05:42:21;5.60;;;4.13;;
81170;SDS011;70644;44.818;20.478;2024-02-26T05:44:47;5.68;;;4.43;;
81170;SDS011;70644;44.818;20.478;2024-02-26T05:47:13;5.95;;;4.35;;
81170;SDS011;70644;44.818;20.478;2024-02-26T05:49:39;6.50;;;4.30;;
81170;SDS011;70644;44.818;20.478;2024-02-26T05:52:06;5.70;;;4.45;;
81170;SDS011;70644;44.818;20.478;2024-02-26T05:54:32;6.05;;;4.70;;
81170;SDS011;70644;44.818;20.478;2024-02-26T05:56:58;6.63;;;4.72;;
81170;SDS011;70644;44.818;20.478;2024-02-26T05:59:24;6.10;;;4.63;;
81170;SDS011;70644;44.818;20.478;2024-02-26T06:01:50;5.45;;;3.97;;
81170;SDS011;70644;44.818;20.478;2024-02-26T06:04:16;6.50;;;4.53;;
81170;SDS011;70644;44.818;20.478;2024-02-26T06:06:43;5.88;;;4.18;;
81170;SDS011;70644;44.818;20.478;2024-02-26T06:09:10;5.25;;;4.55;;
81170;SDS011;70644;44.818;20.478;2024-02-26T06:11:37;6.20;;;4.22;;
81170;SDS011;70644;44.818;20.478;2024-02-26T06:14:03;5.97;;;4.05;;
81170;SDS011;70644;44.818;20.478;2024-02-26T06:16:29;5.90;;;4.72;;
81170;SDS011;70644;44.818;20.478;2024-02-26T06:18:55;5.60;;;4.70;;
81170;SDS011;70644;44.818;20.478;2024-02-26T06:21:21;5.00;;;4.13;;
81170;SDS011;70644;44.818;20.478;2024-02-26T06:23:47;6.05;;;4.13;;
81170;SDS011;70644;44.818;20.478;2024-02-26T06:26:15;5.63;;;4.18;;
81170;SDS011;70644;44.818;20.478;2024-02-26T06:28:41;5.60;;;4.35;;
81170;SDS011;70644;44.818;20.478;2024-02-26T06:31:07;5.43;;;4.45;;
81170;SDS011;70644;44.818;20.478;2024-02-26T06:33:33;6.30;;;4.70;;
81170;SDS011;70644;44.818;20.478;2024-02-26T06:36:00;5.97;;;4.45;;
81170;SDS011;70644;44.818;20.478;2024-02-26T06:38:26;5.90;;;4.43;;
81170;SDS011;70644;44.818;20.478;2024-02-26T06:40:52;5.72;;;4.20;;
81170;SDS011;70644;44.818;20.478;2024-02-26T06:43:18;5.78;;;4.22;;
81170;SDS011;70644;44.818;20.478;2024-02-26T06:45:44;5.38;;;4.45;;
81170;SDS011;70644;44.818;20.478;2024-02-26T06:48:10;6.35;;;4.68;;
81170;SDS011;70644;44.818;20.478;2024-02-26T06:50:36;6.03;;;4.60;;
81170;SDS011;70644;44.818;20.478;2024-02-26T06:53:02;4.97;;;4.30;;
81170;SDS011;70644;44.818;20.478;2024-02-26T06:55:28;5.40;;;4.60;;
81170;SDS011;70644;44.818;20.478;2024-02-26T06:57:54;6.10;;;4.63;;
81170;SDS011;70644;44.818;20.478;2024-02-26T07:00:20;5.13;;;4.47;;
81170;SDS011;70644;44.818;20.478;2024-02-26T07:02:47;6.57;;;4.47;;
81170;SDS011;70644;44.818;20.478;2024-02-26T07:05:13;5.85;;;4.68;;
81170;SDS011;70644;44.818;20.478;2024-02-26T07:07:39;6.18;;;4.60;;
81170;SDS011;70644;44.818;20.478;2024-02-26T07:10:05;6.65;;;4.82;;
81170;SDS011;70644;44.818;20.478;2024-02-26T07:12:32;7.78;;;4.95;;
81170;SDS011;70644;44.818;20.478;2024-02-26T07:14:58;6.72;;;5.00;;
81170;SDS011;70644;44.818;20.478;2024-02-26T07:17:24;7.93;;;6.10;;
81170;SDS011;70644;44.818;20.478;2024-02-26T07:19:50;9.45;;;6.38;;
81170;SDS011;70644;44.818;20.478;2024-02-26T07:22:16;8.65;;;6.80;;
81170;SDS011;70644;44.818;20.478;2024-02-26T07:24:42;9.07;;;5.97;;
81170;SDS011;70644;44.818;20.478;2024-02-26T07:27:09;7.95;;;6.20;;
81170;SDS011;70644;44.818;20.478;2024-02-26T07:29:35;8.85;;;6.13;;
81170;SDS011;70644;44.818;20.478;2024-02-26T07:32:01;8.00;;;6.38;;
81170;SDS011;70644;44.818;20.478;2024-02-26T07:34:27;9.27;;;6.70;;
81170;SDS011;70644;44.818;20.478;2024-02-26T07:36:57;10.20;;;6.65;;
81170;SDS011;70644;44.818;20.478;2024-02-26T07:39:23;7.45;;;5.72;;
81170;SDS011;70644;44.818;20.478;2024-02-26T07:41:49;8.10;;;5.80;;
81170;SDS011;70644;44.818;20.478;2024-02-26T07:44:17;8.70;;;6.00;;
81170;SDS011;70644;44.818;20.478;2024-02-26T07:46:44;7.47;;;5.80;;
81170;SDS011;70644;44.818;20.478;2024-02-26T07:49:10;8.55;;;5.85;;
81170;SDS011;70644;44.818;20.478;2024-02-26T07:51:36;8.68;;;5.93;;
81170;SDS011;70644;44.818;20.478;2024-02-26T07:54:02;8.43;;;6.07;;
81170;SDS011;70644;44.818;20.478;2024-02-26T07:56:28;9.32;;;6.40;;
81170;SDS011;70644;44.818;20.478;2024-02-26T07:58:55;8.13;;;5.70;;
81170;SDS011;70644;44.818;20.478;2024-02-26T08:01:21;9.57;;;5.90;;
81170;SDS011;70644;44.818;20.478;2024-02-26T08:03:47;6.80;;;5.43;;
81170;SDS011;70644;44.818;20.478;2024-02-26T08:06:13;7.20;;;5.88;;
81170;SDS011;70644;44.818;20.478;2024-02-26T08:08:39;6.85;;;5.38;;
81170;SDS011;70644;44.818;20.478;2024-02-26T08:11:05;13.15;;;5.68;;
81170;SDS011;70644;44.818;20.478;2024-02-26T08:13:32;6.88;;;5.70;;
81170;SDS011;70644;44.818;20.478;2024-02-26T08:15:58;8.05;;;5.35;;
81170;SDS011;70644;44.818;20.478;2024-02-26T08:18:24;8.43;;;5.63;;
81170;SDS011;70644;44.818;20.478;2024-02-26T08:20:50;12.30;;;6.38;;
81170;SDS011;70644;44.818;20.478;2024-02-26T08:23:17;13.73;;;5.65;;
81170;SDS011;70644;44.818;20.478;2024-02-26T08:25:43;15.57;;;7.97;;
81170;SDS011;70644;44.818;20.478;2024-02-26T08:28:09;13.82;;;9.13;;
81170;SDS011;70644;44.818;20.478;2024-02-26T08:30:39;12.15;;;8.57;;
81170;SDS011;70644;44.818;20.478;2024-02-26T08:33:05;12.27;;;7.95;;
81170;SDS011;70644;44.818;20.478;2024-02-26T08:35:31;12.20;;;9.02;;
81170;SDS011;70644;44.818;20.478;2024-02-26T08:37:58;12.73;;;8.05;;
81170;SDS011;70644;44.818;20.478;2024-02-26T08:40:24;11.95;;;8.80;;
81170;SDS011;70644;44.818;20.478;2024-02-26T08:42:50;11.93;;;8.55;;
81170;SDS011;70644;44.818;20.478;2024-02-26T08:45:16;9.70;;;7.30;;
81170;SDS011;70644;44.818;20.478;2024-02-26T08:47:44;11.38;;;7.57;;
81170;SDS011;70644;44.818;20.478;2024-02-26T08:50:10;14.23;;;7.05;;
81170;SDS011;70644;44.818;20.478;2024-02-26T08:52:37;10.93;;;8.13;;
81170;SDS011;70644;44.818;20.478;2024-02-26T08:55:03;9.65;;;7.50;;
81170;SDS011;70644;44.818;20.478;2024-02-26T08:57:31;9.43;;;7.20;;
81170;SDS011;70644;44.818;20.478;2024-02-26T09:00:01;9.90;;;7.32;;
81170;SDS011;70644;44.818;20.478;2024-02-26T09:02:27;11.38;;;7.18;;
81170;SDS011;70644;44.818;20.478;2024-02-26T09:04:53;9.85;;;6.80;;
81170;SDS011;70644;44.818;20.478;2024-02-26T09:07:20;10.10;;;6.78;;
81170;SDS011;70644;44.818;20.478;2024-02-26T09:09:46;10.77;;;6.70;;
81170;SDS011;70644;44.818;20.478;2024-02-26T09:12:12;8.65;;;6.28;;
81170;SDS011;70644;44.818;20.478;2024-02-26T09:14:38;10.07;;;6.43;;
81170;SDS011;70644;44.818;20.478;2024-02-26T09:17:04;9.27;;;6.40;;
81170;SDS011;70644;44.818;20.478;2024-02-26T09:19:32;9.82;;;6.68;;
81170;SDS011;70644;44.818;20.478;2024-02-26T09:21:58;12.07;;;6.82;;
81170;SDS011;70644;44.818;20.478;2024-02-26T09:24:26;9.10;;;5.57;;
81170;SDS011;70644;44.818;20.478;2024-02-26T09:26:52;9.50;;;5.93;;
81170;SDS011;70644;44.818;20.478;2024-02-26T09:29:18;8.52;;;5.65;;
81170;SDS011;70644;44.818;20.478;2024-02-26T09:31:44;7.47;;;5.85;;
81170;SDS011;70644;44.818;20.478;2024-02-26T09:34:12;10.15;;;5.80;;
81170;SDS011;70644;44.818;20.478;2024-02-26T09:36:38;8.70;;;5.95;;
81170;SDS011;70644;44.818;20.478;2024-02-26T09:39:05;8.85;;;5.70;;
81170;SDS011;70644;44.818;20.478;2024-02-26T09:41:35;9.57;;;6.03;;
81170;SDS011;70644;44.818;20.478;2024-02-26T09:44:01;9.02;;;6.03;;
81170;SDS011;70644;44.818;20.478;2024-02-26T09:46:28;7.70;;;5.50;;
81170;SDS011;70644;44.818;20.478;2024-02-26T09:48:54;7.53;;;5.53;;
81170;SDS011;70644;44.818;20.478;2024-02-26T09:51:22;7.85;;;6.00;;
81170;SDS011;70644;44.818;20.478;2024-02-26T09:53:51;7.72;;;5.78;;
81170;SDS011;70644;44.818;20.478;2024-02-26T09:56:18;7.88;;;5.47;;
81170;SDS011;70644;44.818;20.478;2024-02-26T09:58:44;7.93;;;5.38;;
81170;SDS011;70644;44.818;20.478;2024-02-26T10:01:18;11.05;;;5.88;;
81170;SDS011;70644;44.818;20.478;2024-02-26T10:03:51;10.27;;;5.65;;
81170;SDS011;70644;44.818;20.478;2024-02-26T10:06:18;10.48;;;5.85;;
81170;SDS011;70644;44.818;20.478;2024-02-26T10:08:45;12.63;;;5.55;;
81170;SDS011;70644;44.818;20.478;2024-02-26T10:11:11;10.98;;;5.95;;
81170;SDS011;70644;44.818;20.478;2024-02-26T10:13:38;7.10;;;5.80;;
81170;SDS011;70644;44.818;20.478;2024-02-26T10:16:04;8.20;;;5.25;;
81170;SDS011;70644;44.818;20.478;2024-02-26T10:18:47;8.50;;;5.93;;
81170;SDS011;70644;44.818;20.478;2024-02-26T10:21:13;11.65;;;5.97;;
81170;SDS011;70644;44.818;20.478;2024-02-26T10:23:42;9.13;;;5.75;;
81170;SDS011;70644;44.818;20.478;2024-02-26T10:26:10;7.82;;;5.30;;
81170;SDS011;70644;44.818;20.478;2024-02-26T10:28:37;11.82;;;5.90;;
81170;SDS011;70644;44.818;20.478;2024-02-26T10:31:03;8.75;;;5.78;;
81170;SDS011;70644;44.818;20.478;2024-02-26T10:33:29;8.02;;;5.28;;
81170;SDS011;70644;44.818;20.478;2024-02-26T10:35:56;9.70;;;5.70;;
81170;SDS011;70644;44.818;20.478;2024-02-26T10:38:22;8.75;;;5.95;;
81170;SDS011;70644;44.818;20.478;2024-02-26T10:40:49;7.75;;;5.75;;
81170;SDS011;70644;44.818;20.478;2024-02-26T10:43:15;9.45;;;5.78;;
81170;SDS011;70644;44.818;20.478;2024-02-26T10:45:42;7.65;;;5.70;;
81170;SDS011;70644;44.818;20.478;2024-02-26T10:48:10;9.20;;;6.50;;
81170;SDS011;70644;44.818;20.478;2024-02-26T10:50:37;7.20;;;5.57;;
81170;SDS011;70644;44.818;20.478;2024-02-26T10:53:04;6.70;;;4.93;;
81170;SDS011;70644;44.818;20.478;2024-02-26T10:55:32;7.82;;;5.55;;
81170;SDS011;70644;44.818;20.478;2024-02-26T10:58:00;8.45;;;5.45;;
81170;SDS011;70644;44.818;20.478;2024-02-26T11:00:27;8.18;;;5.55;;
81170;SDS011;70644;44.818;20.478;2024-02-26T11:02:55;7.68;;;5.35;;
81170;SDS011;70644;44.818;20.478;2024-02-26T11:05:23;8.10;;;5.82;;
81170;SDS011;70644;44.818;20.478;2024-02-26T11:07:49;7.50;;;5.30;;
81170;SDS011;70644;44.818;20.478;2024-02-26T11:10:16;7.93;;;5.53;;
81170;SDS011;70644;44.818;20.478;2024-02-26T11:12:42;8.32;;;5.57;;
81170;SDS011;70644;44.818;20.478;2024-02-26T11:15:08;7.80;;;5.47;;
81170;SDS011;70644;44.818;20.478;2024-02-26T11:17:35;8.48;;;5.65;;
81170;SDS011;70644;44.818;20.478;2024-02-26T11:20:03;10.55;;;6.10;;
81170;SDS011;70644;44.818;20.478;2024-02-26T11:22:30;8.68;;;5.65;;
81170;SDS011;70644;44.818;20.478;2024-02-26T11:24:57;7.90;;;5.85;;
81170;SDS011;70644;44.818;20.478;2024-02-26T11:27:29;7.57;;;5.35;;
81170;SDS011;70644;44.818;20.478;2024-02-26T11:29:57;7.10;;;5.63;;
81170;SDS011;70644;44.818;20.478;2024-02-26T11:32:25;7.35;;;5.30;;
81170;SDS011;70644;44.818;20.478;2024-02-26T11:34:52;8.65;;;5.10;;
81170;SDS011;70644;44.818;20.478;2024-02-26T11:37:19;8.80;;;5.50;;
81170;SDS011;70644;44.818;20.478;2024-02-26T11:39:47;8.48;;;5.40;;
81170;SDS011;70644;44.818;20.478;2024-02-26T11:42:16;7.88;;;5.63;;
81170;SDS011;70644;44.818;20.478;2024-02-26T11:44:42;8.43;;;5.55;;
81170;SDS011;70644;44.818;20.478;2024-02-26T11:47:11;8.52;;;5.32;;
81170;SDS011;70644;44.818;20.478;2024-02-26T11:49:38;9.15;;;5.38;;
81170;SDS011;70644;44.818;20.478;2024-02-26T11:52:05;7.07;;;4.97;;
81170;SDS011;70644;44.818;20.478;2024-02-26T11:54:44;7.78;;;5.47;;
81170;SDS011;70644;44.818;20.478;2024-02-26T11:57:20;7.93;;;5.40;;
81170;SDS011;70644;44.818;20.478;2024-02-26T11:59:47;9.07;;;5.47;;
81170;SDS011;70644;44.818;20.478;2024-02-26T12:02:37;7.25;;;5.30;;
81170;SDS011;70644;44.818;20.478;2024-02-26T12:04:59;6.45;;;5.03;;
81170;SDS011;70644;44.818;20.478;2024-02-26T12:07:25;7.03;;;5.30;;
81170;SDS011;70644;44.818;20.478;2024-02-26T12:09:51;8.98;;;5.45;;
81170;SDS011;70644;44.818;20.478;2024-02-26T12:12:17;6.93;;;5.13;;
81170;SDS011;70644;44.818;20.478;2024-02-26T12:14:52;8.15;;;5.10;;
81170;SDS011;70644;44.818;20.478;2024-02-26T12:17:19;9.30;;;5.13;;
81170;SDS011;70644;44.818;20.478;2024-02-26T12:19:45;11.75;;;5.35;;
81170;SDS011;70644;44.818;20.478;2024-02-26T12:22:15;11.98;;;5.38;;
81170;SDS011;70644;44.818;20.478;2024-02-26T12:24:41;7.70;;;5.18;;
81170;SDS011;70644;44.818;20.478;2024-02-26T12:27:08;7.97;;;5.28;;
81170;SDS011;70644;44.818;20.478;2024-02-26T12:29:34;6.72;;;5.35;;
81170;SDS011;70644;44.818;20.478;2024-02-26T12:32:00;6.90;;;4.88;;
81170;SDS011;70644;44.818;20.478;2024-02-26T12:34:26;9.57;;;5.35;;
81170;SDS011;70644;44.818;20.478;2024-02-26T12:36:53;8.55;;;4.55;;
81170;SDS011;70644;44.818;20.478;2024-02-26T12:39:20;7.70;;;5.30;;
81170;SDS011;70644;44.818;20.478;2024-02-26T12:41:46;6.95;;;4.68;;
81170;SDS011;70644;44.818;20.478;2024-02-26T12:44:16;9.00;;;4.90;;
81170;SDS011;70644;44.818;20.478;2024-02-26T12:46:42;9.30;;;4.93;;
81170;SDS011;70644;44.818;20.478;2024-02-26T12:49:08;8.38;;;4.75;;
81170;SDS011;70644;44.818;20.478;2024-02-26T12:51:40;8.23;;;5.25;;
81170;SDS011;70644;44.818;20.478;2024-02-26T12:54:08;12.57;;;6.68;;
81170;SDS011;70644;44.818;20.478;2024-02-26T12:56:35;11.48;;;5.07;;
81170;SDS011;70644;44.818;20.478;2024-02-26T12:59:03;14.02;;;5.88;;
81170;SDS011;70644;44.818;20.478;2024-02-26T13:01:29;9.32;;;5.65;;
81170;SDS011;70644;44.818;20.478;2024-02-26T13:03:55;11.32;;;5.70;;
81170;SDS011;70644;44.818;20.478;2024-02-26T13:06:22;10.35;;;5.43;;
81170;SDS011;70644;44.818;20.478;2024-02-26T13:08:49;10.95;;;6.00;;
81170;SDS011;70644;44.818;20.478;2024-02-26T13:11:15;11.65;;;5.38;;
81170;SDS011;70644;44.818;20.478;2024-02-26T13:13:41;8.45;;;5.63;;
81170;SDS011;70644;44.818;20.478;2024-02-26T13:16:09;10.85;;;5.53;;
81170;SDS011;70644;44.818;20.478;2024-02-26T13:18:36;6.97;;;5.82;;
81170;SDS011;70644;44.818;20.478;2024-02-26T13:23:34;6.00;;;4.65;;
81170;SDS011;70644;44.818;20.478;2024-02-26T13:26:00;7.40;;;4.95;;
81170;SDS011;70644;44.818;20.478;2024-02-26T13:28:26;6.78;;;4.75;;
81170;SDS011;70644;44.818;20.478;2024-02-26T13:30:53;8.80;;;4.78;;
81170;SDS011;70644;44.818;20.478;2024-02-26T13:33:23;6.82;;;4.80;;
81170;SDS011;70644;44.818;20.478;2024-02-26T13:35:49;5.28;;;4.10;;
81170;SDS011;70644;44.818;20.478;2024-02-26T13:38:15;6.03;;;3.95;;
81170;SDS011;70644;44.818;20.478;2024-02-26T13:40:42;6.47;;;3.85;;
81170;SDS011;70644;44.818;20.478;2024-02-26T13:43:08;5.38;;;3.78;;
81170;SDS011;70644;44.818;20.478;2024-02-26T13:45:34;5.95;;;4.03;;
81170;SDS011;70644;44.818;20.478;2024-02-26T13:48:01;5.68;;;3.88;;
81170;SDS011;70644;44.818;20.478;2024-02-26T13:50:28;60.75;;;11.18;;
81170;SDS011;70644;44.818;20.478;2024-02-26T13:52:54;66.88;;;9.68;;
81170;SDS011;70644;44.818;20.478;2024-02-26T13:55:30;37.80;;;8.38;;
81170;SDS011;70644;44.818;20.478;2024-02-26T13:57:57;30.65;;;7.88;;
81170;SDS011;70644;44.818;20.478;2024-02-26T14:00:23;33.22;;;6.18;;
81170;SDS011;70644;44.818;20.478;2024-02-26T14:02:50;24.02;;;7.47;;
81170;SDS011;70644;44.818;20.478;2024-02-26T14:05:16;22.95;;;5.70;;
81170;SDS011;70644;44.818;20.478;2024-02-26T14:07:42;24.30;;;6.50;;
81170;SDS011;70644;44.818;20.478;2024-02-26T14:10:09;21.20;;;5.00;;
81170;SDS011;70644;44.818;20.478;2024-02-26T14:12:37;17.60;;;6.93;;
81170;SDS011;70644;44.818;20.478;2024-02-26T14:15:05;12.30;;;4.97;;
81170;SDS011;70644;44.818;20.478;2024-02-26T14:17:32;9.82;;;5.43;;
81170;SDS011;70644;44.818;20.478;2024-02-26T14:19:58;8.65;;;5.28;;
81170;SDS011;70644;44.818;20.478;2024-02-26T14:22:24;6.70;;;4.30;;
81170;SDS011;70644;44.818;20.478;2024-02-26T14:24:55;8.10;;;4.60;;
81170;SDS011;70644;44.818;20.478;2024-02-26T14:27:21;7.38;;;4.13;;
81170;SDS011;70644;44.818;20.478;2024-02-26T14:29:48;5.80;;;4.30;;
81170;SDS011;70644;44.818;20.478;2024-02-26T14:32:14;6.93;;;4.43;;